PWSweather.com
Personal Weather Stations
Station Observations

SaroSE

Lat: 57.5222, Lon: 11.947

Elevation: 35

Station Type: Davis VP2

http://www.lokaltvader.se/

High Low Average
Temperature 55.4°F13.0°F 47.7°F8.7°F 52.1°F11.2°F
Dew Point 52.6°F11.4°F 46.6°F8.1°F 50.6°F10.3°F
Winds 12.7 mph -20.4 mph - Calm Calm 4.9 mph 7.9 mph
Wind Gusts 17.3 mph27.8 mph -- 6.7 mph10.8 mph
Humidity 97% 89% 95%
Pressure 29.97 in1014.90 in 29.64 in1003.70 in -
Precipitation 0.81 in20.60 in - -
Hour Temp Dew Point Humidity Winds Wind Gusts Pressure Precip Precip Rate Daily Precip Total
12:00 AM 52.1°F11.2°C 51.0°F10.6°C 96% 9.2 mph SE14.8 kmh SE 12.7 mph20.4 kmh 29.65 in1004.1 mb - 0.08 in2.0 mm 0.08 in2.0 mm
12:15 AM 52.1°F11.2°C 51.0°F10.6°C 96% 9.2 mph SE14.8 kmh SE 9.2 mph14.8 kmh 29.65 in1004.1 mb - 0.13 in3.3 mm 0.14 in3.6 mm
12:30 AM 52.0°F11.1°C 50.9°F10.5°C 96% 8.1 mph ESE13.0 kmh ESE 17.3 mph27.8 kmh 29.64 in1003.7 mb - 0.15 in3.8 mm 0.17 in4.3 mm
12:45 AM 52.0°F11.1°C 51.2°F10.7°C 97% 10.4 mph SE16.7 kmh SE 13.8 mph22.2 kmh 29.64 in1003.7 mb - 0.13 in3.3 mm 0.19 in4.8 mm
01:00 AM 52.0°F11.1°C 51.2°F10.7°C 97% 11.5 mph SE18.5 kmh SE 15.0 mph24.1 kmh 29.64 in1003.7 mb - 0.13 in3.3 mm 0.21 in5.3 mm
01:15 AM 52.0°F11.1°C 51.2°F10.7°C 97% 9.2 mph SE14.8 kmh SE 11.5 mph18.5 kmh 29.64 in1003.7 mb - 0.07 in1.8 mm 0.21 in5.3 mm
01:30 AM 52.2°F11.2°C 51.4°F10.8°C 97% 10.4 mph SE16.7 kmh SE 11.5 mph18.5 kmh 29.64 in1003.7 mb - 0.05 in1.3 mm 0.22 in5.6 mm
01:45 AM 52.4°F11.3°C 51.6°F10.9°C 97% 10.4 mph SE16.7 kmh SE 13.8 mph22.2 kmh 29.64 in1003.7 mb - 0.03 in0.8 mm 0.22 in5.6 mm
02:00 AM 52.7°F11.5°C 51.9°F11.1°C 97% 6.9 mph SSE11.1 kmh SSE 11.5 mph18.5 kmh 29.64 in1003.7 mb - 0.02 in0.5 mm 0.22 in5.6 mm
02:15 AM 52.9°F11.6°C 52.1°F11.2°C 97% 8.1 mph SSE13.0 kmh SSE 11.5 mph18.5 kmh 29.64 in1003.7 mb - 0.02 in0.5 mm 0.22 in5.6 mm
02:30 AM 53.1°F11.7°C 52.3°F11.3°C 97% 8.1 mph S13.0 kmh S 10.4 mph16.7 kmh 29.64 in1003.7 mb - 0.00 in0.0 mm 0.22 in5.6 mm
02:45 AM 52.9°F11.6°C 52.1°F11.2°C 97% 6.9 mph SSW11.1 kmh SSW 9.2 mph14.8 kmh 29.66 in1004.4 mb - 0.00 in0.0 mm 0.22 in5.6 mm
03:00 AM 52.2°F11.2°C 51.4°F10.8°C 97% 4.6 mph S7.4 kmh S 5.8 mph9.3 kmh 29.66 in1004.4 mb - 0.00 in0.0 mm 0.22 in5.6 mm
03:15 AM 52.0°F11.1°C 51.2°F10.7°C 97% 5.8 mph S9.3 kmh S 6.9 mph11.1 kmh 29.66 in1004.4 mb - 0.00 in0.0 mm 0.22 in5.6 mm
03:30 AM 52.2°F11.2°C 51.4°F10.8°C 97% 5.8 mph SW9.3 kmh SW 9.2 mph14.8 kmh 29.66 in1004.4 mb - 0.00 in0.0 mm 0.22 in5.6 mm
03:45 AM 52.5°F11.4°C 51.7°F10.9°C 97% 5.8 mph SW9.3 kmh SW 5.8 mph9.3 kmh 29.66 in1004.4 mb - 0.00 in0.0 mm 0.22 in5.6 mm
04:00 AM 52.2°F11.2°C 51.1°F10.6°C 96% 6.9 mph SSW11.1 kmh SSW 11.5 mph18.5 kmh 29.66 in1004.4 mb - 0.00 in0.0 mm 0.22 in5.6 mm
04:15 AM 52.0°F11.1°C 50.9°F10.5°C 96% 4.6 mph S7.4 kmh S 6.9 mph11.1 kmh 29.66 in1004.4 mb - 0.00 in0.0 mm 0.22 in5.6 mm
04:30 AM 51.9°F11.1°C 50.8°F10.4°C 96% 3.5 mph S5.6 kmh S 9.2 mph14.8 kmh 29.67 in1004.7 mb - 0.00 in0.0 mm 0.22 in5.6 mm
04:45 AM 52.1°F11.2°C 51.0°F10.6°C 96% 5.8 mph SW9.3 kmh SW 9.2 mph14.8 kmh 29.68 in1005.1 mb - 0.00 in0.0 mm 0.22 in5.6 mm
05:00 AM 52.0°F11.1°C 50.9°F10.5°C 96% 5.8 mph SW9.3 kmh SW 9.2 mph14.8 kmh 29.68 in1005.1 mb - 0.00 in0.0 mm 0.22 in5.6 mm
05:15 AM 51.8°F11.0°C 50.7°F10.4°C 96% 5.8 mph SSW9.3 kmh SSW 8.1 mph13.0 kmh 29.68 in1005.1 mb - 0.00 in0.0 mm 0.22 in5.6 mm
05:30 AM 51.7°F10.9°C 50.6°F10.3°C 96% 4.6 mph S7.4 kmh S 6.9 mph11.1 kmh 29.69 in1005.4 mb - 0.00 in0.0 mm 0.22 in5.6 mm
05:45 AM 51.6°F10.9°C 50.5°F10.3°C 96% 4.6 mph SSW7.4 kmh SSW 9.2 mph14.8 kmh 29.70 in1005.8 mb - 0.00 in0.0 mm 0.22 in5.6 mm
06:00 AM 51.7°F10.9°C 50.6°F10.3°C 96% 4.6 mph S7.4 kmh S 8.1 mph13.0 kmh 29.70 in1005.8 mb - 0.00 in0.0 mm 0.22 in5.6 mm
06:15 AM 51.6°F10.9°C 50.5°F10.3°C 96% 5.8 mph SSW9.3 kmh SSW 6.9 mph11.1 kmh 29.71 in1006.1 mb - 0.00 in0.0 mm 0.22 in5.6 mm
06:30 AM 51.4°F10.8°C 50.3°F10.2°C 96% 5.8 mph S9.3 kmh S 6.9 mph11.1 kmh 29.71 in1006.1 mb - 0.00 in0.0 mm 0.22 in5.6 mm
06:45 AM 51.3°F10.7°C 50.2°F10.1°C 96% 3.5 mph S5.6 kmh S 3.5 mph5.6 kmh 29.72 in1006.4 mb - 0.00 in0.0 mm 0.22 in5.6 mm
07:00 AM 51.0°F10.6°C 49.9°F9.9°C 96% 5.8 mph SSE9.3 kmh SSE 6.9 mph11.1 kmh 29.72 in1006.4 mb - 0.00 in0.0 mm 0.22 in5.6 mm
07:15 AM 50.9°F10.5°C 49.8°F9.9°C 96% 4.6 mph SSE7.4 kmh SSE 4.6 mph7.4 kmh 29.72 in1006.4 mb - 0.00 in0.0 mm 0.22 in5.6 mm
07:30 AM 51.0°F10.6°C 49.9°F9.9°C 96% 5.8 mph SSE9.3 kmh SSE 9.2 mph14.8 kmh 29.73 in1006.8 mb - 0.00 in0.0 mm 0.22 in5.6 mm
07:45 AM 51.2°F10.7°C 50.1°F10.1°C 96% 4.6 mph SSE7.4 kmh SSE 6.9 mph11.1 kmh 29.73 in1006.8 mb - 0.00 in0.0 mm 0.22 in5.6 mm
08:00 AM 51.2°F10.7°C 50.1°F10.1°C 96% 4.6 mph SE7.4 kmh SE 4.6 mph7.4 kmh 29.73 in1006.8 mb - 0.00 in0.0 mm 0.22 in5.6 mm
08:15 AM 51.3°F10.7°C 50.2°F10.1°C 96% 3.5 mph SE5.6 kmh SE 3.5 mph5.6 kmh 29.73 in1006.8 mb - 0.00 in0.0 mm 0.22 in5.6 mm
08:30 AM 51.4°F10.8°C 50.3°F10.2°C 96% 5.8 mph SE9.3 kmh SE 6.9 mph11.1 kmh 29.74 in1007.1 mb - 0.00 in0.0 mm 0.22 in5.6 mm
08:45 AM 51.7°F10.9°C 50.6°F10.3°C 96% 3.5 mph SSE5.6 kmh SSE 5.8 mph9.3 kmh 29.74 in1007.1 mb - 0.00 in0.0 mm 0.22 in5.6 mm
09:00 AM 51.8°F11.0°C 50.7°F10.4°C 96% Calm Calm 2.3 mph3.7 kmh 29.75 in1007.5 mb - 0.00 in0.0 mm 0.22 in5.6 mm
09:15 AM 51.9°F11.1°C 50.8°F10.4°C 96% 6.9 mph S11.1 kmh S 11.5 mph18.5 kmh 29.75 in1007.5 mb - 0.00 in0.0 mm 0.22 in5.6 mm
09:30 AM 51.7°F10.9°C 50.6°F10.3°C 96% 3.5 mph SSW5.6 kmh SSW 4.6 mph7.4 kmh 29.76 in1007.8 mb - 0.00 in0.0 mm 0.22 in5.6 mm
09:45 AM 51.9°F11.1°C 50.8°F10.4°C 96% Calm Calm -- 29.76 in1007.8 mb - 0.00 in0.0 mm 0.22 in5.6 mm
10:00 AM 52.3°F11.3°C 51.2°F10.7°C 96% 4.6 mph SSW7.4 kmh SSW 4.6 mph7.4 kmh 29.77 in1008.1 mb - 0.00 in0.0 mm 0.22 in5.6 mm
10:15 AM 52.6°F11.4°C 51.5°F10.8°C 96% 4.6 mph SSW7.4 kmh SSW 9.2 mph14.8 kmh 29.77 in1008.1 mb - 0.00 in0.0 mm 0.22 in5.6 mm
10:30 AM 52.4°F11.3°C 51.0°F10.6°C 95% 4.6 mph S7.4 kmh S 4.6 mph7.4 kmh 29.77 in1008.1 mb - 0.00 in0.0 mm 0.22 in5.6 mm
10:45 AM 53.1°F11.7°C 51.7°F10.9°C 95% Calm Calm 2.3 mph3.7 kmh 29.78 in1008.5 mb - 0.00 in0.0 mm 0.22 in5.6 mm
11:00 AM 53.3°F11.8°C 52.0°F11.1°C 95% 6.9 mph SSE11.1 kmh SSE 8.1 mph13.0 kmh 29.78 in1008.5 mb - 0.00 in0.0 mm 0.22 in5.6 mm
11:15 AM 53.8°F12.1°C 52.1°F11.2°C 94% 6.9 mph S11.1 kmh S 11.5 mph18.5 kmh 29.79 in1008.8 mb - 0.00 in0.0 mm 0.22 in5.6 mm
11:30 AM 53.9°F12.2°C 51.9°F11.1°C 93% 8.1 mph SSW13.0 kmh SSW 11.5 mph18.5 kmh 29.79 in1008.8 mb - 0.00 in0.0 mm 0.22 in5.6 mm
11:45 AM 53.5°F11.9°C 51.5°F10.8°C 93% 12.7 mph SW20.4 kmh SW 15.0 mph24.1 kmh 29.79 in1008.8 mb - 0.00 in0.0 mm 0.22 in5.6 mm
12:00 PM 53.5°F11.9°C 51.5°F10.8°C 93% 9.2 mph SW14.8 kmh SW 11.5 mph18.5 kmh 29.79 in1008.8 mb - 0.00 in0.0 mm 0.22 in5.6 mm
12:15 PM 53.7°F12.1°C 51.7°F10.9°C 93% 6.9 mph SW11.1 kmh SW 9.2 mph14.8 kmh 29.80 in1009.1 mb - 0.00 in0.0 mm 0.22 in5.6 mm
12:30 PM 54.4°F12.4°C 52.4°F11.3°C 93% 10.4 mph SW16.7 kmh SW 11.5 mph18.5 kmh 29.80 in1009.1 mb - 0.00 in0.0 mm 0.22 in5.6 mm
12:45 PM 54.6°F12.6°C 52.3°F11.3°C 92% 2.3 mph S3.7 kmh S 3.5 mph5.6 kmh 29.80 in1009.1 mb - 0.00 in0.0 mm 0.22 in5.6 mm
01:00 PM 54.8°F12.7°C 52.5°F11.4°C 92% 6.9 mph SW11.1 kmh SW 9.2 mph14.8 kmh 29.80 in1009.1 mb - 0.00 in0.0 mm 0.22 in5.6 mm
01:15 PM 54.9°F12.7°C 52.6°F11.4°C 92% 5.8 mph SSW9.3 kmh SSW 9.2 mph14.8 kmh 29.80 in1009.1 mb - 0.00 in0.0 mm 0.22 in5.6 mm
01:30 PM 54.7°F12.6°C 52.4°F11.3°C 92% 5.8 mph SSW9.3 kmh SSW 6.9 mph11.1 kmh 29.80 in1009.1 mb - 0.00 in0.0 mm 0.22 in5.6 mm
01:45 PM 55.1°F12.8°C 52.5°F11.4°C 91% 6.9 mph S11.1 kmh S 10.4 mph16.7 kmh 29.80 in1009.1 mb - 0.00 in0.0 mm 0.22 in5.6 mm
02:00 PM 55.4°F13.0°C 52.5°F11.4°C 90% 6.9 mph S11.1 kmh S 8.1 mph13.0 kmh 29.81 in1009.5 mb - 0.00 in0.0 mm 0.22 in5.6 mm
02:15 PM 55.1°F12.8°C 52.3°F11.3°C 90% 5.8 mph SSW9.3 kmh SSW 8.1 mph13.0 kmh 29.81 in1009.5 mb - 0.00 in0.0 mm 0.22 in5.6 mm
02:30 PM 55.1°F12.8°C 51.9°F11.1°C 89% 9.2 mph SW14.8 kmh SW 12.7 mph20.4 kmh 29.81 in1009.5 mb - 0.00 in0.0 mm 0.22 in5.6 mm
02:45 PM 55.3°F12.9°C 52.1°F11.2°C 89% 4.6 mph SSW7.4 kmh SSW 6.9 mph11.1 kmh 29.81 in1009.5 mb - 0.00 in0.0 mm 0.22 in5.6 mm
03:00 PM 55.3°F12.9°C 52.1°F11.2°C 89% 5.8 mph SW9.3 kmh SW 6.9 mph11.1 kmh 29.82 in1009.8 mb - 0.00 in0.0 mm 0.22 in5.6 mm
03:15 PM 54.7°F12.6°C 51.5°F10.8°C 89% 4.6 mph SW7.4 kmh SW 5.8 mph9.3 kmh 29.82 in1009.8 mb - 0.00 in0.0 mm 0.22 in5.6 mm
03:30 PM 54.2°F12.3°C 51.0°F10.6°C 89% 8.1 mph SW13.0 kmh SW 9.2 mph14.8 kmh 29.83 in1010.2 mb - 0.00 in0.0 mm 0.22 in5.6 mm
03:45 PM 54.2°F12.3°C 51.3°F10.7°C 90% 4.6 mph SW7.4 kmh SW 5.8 mph9.3 kmh 29.84 in1010.5 mb - 0.00 in0.0 mm 0.22 in5.6 mm
04:00 PM 54.2°F12.3°C 51.3°F10.7°C 90% 6.9 mph SW11.1 kmh SW 8.1 mph13.0 kmh 29.84 in1010.5 mb - 0.00 in0.0 mm 0.22 in5.6 mm
04:15 PM 54.0°F12.2°C 51.1°F10.6°C 90% 3.5 mph SW5.6 kmh SW 3.5 mph5.6 kmh 29.84 in1010.5 mb - 0.00 in0.0 mm 0.22 in5.6 mm
04:30 PM 53.8°F12.1°C 50.9°F10.5°C 90% 4.6 mph SW7.4 kmh SW 5.8 mph9.3 kmh 29.84 in1010.5 mb - 0.00 in0.0 mm 0.22 in5.6 mm
04:45 PM 53.4°F11.9°C 50.8°F10.4°C 91% 3.5 mph SW5.6 kmh SW 4.6 mph7.4 kmh 29.85 in1010.8 mb - 0.00 in0.0 mm 0.22 in5.6 mm
05:00 PM 52.9°F11.6°C 50.3°F10.2°C 91% Calm Calm -- 29.85 in1010.8 mb - 0.00 in0.0 mm 0.22 in5.6 mm
05:15 PM 52.4°F11.3°C 49.8°F9.9°C 91% Calm Calm -- 29.86 in1011.2 mb - 0.00 in0.0 mm 0.22 in5.6 mm
05:30 PM 51.9°F11.1°C 49.6°F9.8°C 92% Calm Calm 4.6 mph7.4 kmh 29.86 in1011.2 mb - 0.00 in0.0 mm 0.22 in5.6 mm
05:45 PM 51.6°F10.9°C 49.4°F9.7°C 92% Calm Calm -- 29.87 in1011.5 mb - 0.00 in0.0 mm 0.22 in5.6 mm
06:00 PM 51.3°F10.7°C 49.3°F9.6°C 93% Calm Calm -- 29.87 in1011.5 mb - 0.00 in0.0 mm 0.22 in5.6 mm
06:15 PM 51.2°F10.7°C 49.2°F9.6°C 93% Calm Calm -- 29.87 in1011.5 mb - 0.00 in0.0 mm 0.22 in5.6 mm
06:30 PM 51.1°F10.6°C 49.4°F9.7°C 94% 4.6 mph SSE7.4 kmh SSE 4.6 mph7.4 kmh 29.88 in1011.9 mb - 0.00 in0.0 mm 0.22 in5.6 mm
06:45 PM 51.1°F10.6°C 49.4°F9.7°C 94% 4.6 mph S7.4 kmh S 5.8 mph9.3 kmh 29.89 in1012.2 mb - 0.00 in0.0 mm 0.22 in5.6 mm
07:00 PM 51.1°F10.6°C 49.4°F9.7°C 94% 2.3 mph S3.7 kmh S 3.5 mph5.6 kmh 29.89 in1012.2 mb - 0.00 in0.0 mm 0.22 in5.6 mm
07:15 PM 50.5°F10.3°C 49.1°F9.5°C 95% 4.6 mph S7.4 kmh S 4.6 mph7.4 kmh 29.90 in1012.5 mb - 0.00 in0.0 mm 0.22 in5.6 mm
07:30 PM 49.7°F9.8°C 48.0°F8.9°C 94% Calm Calm -- 29.90 in1012.5 mb - 0.00 in0.0 mm 0.22 in5.6 mm
07:45 PM 49.5°F9.7°C 48.1°F8.9°C 95% Calm Calm -- 29.91 in1012.9 mb - 0.00 in0.0 mm 0.22 in5.6 mm
08:00 PM 50.0°F10.0°C 48.6°F9.2°C 95% 4.6 mph S7.4 kmh S 4.6 mph7.4 kmh 29.91 in1012.9 mb - 0.00 in0.0 mm 0.22 in5.6 mm
08:15 PM 49.6°F9.8°C 48.2°F9.0°C 95% 4.6 mph SE7.4 kmh SE 4.6 mph7.4 kmh 29.91 in1012.9 mb - 0.00 in0.0 mm 0.22 in5.6 mm
08:30 PM 49.8°F9.9°C 48.7°F9.3°C 96% 5.8 mph SSE9.3 kmh SSE 6.9 mph11.1 kmh 29.91 in1012.9 mb - 0.00 in0.0 mm 0.22 in5.6 mm
08:45 PM 50.2°F10.1°C 49.1°F9.5°C 96% 6.9 mph SSE11.1 kmh SSE 6.9 mph11.1 kmh 29.92 in1013.2 mb - 0.00 in0.0 mm 0.22 in5.6 mm
09:00 PM 50.6°F10.3°C 49.5°F9.7°C 96% 3.5 mph SE5.6 kmh SE 3.5 mph5.6 kmh 29.92 in1013.2 mb - 0.00 in0.0 mm 0.22 in5.6 mm
09:15 PM 50.6°F10.3°C 49.5°F9.7°C 96% Calm Calm -- 29.93 in1013.5 mb - 0.00 in0.0 mm 0.22 in5.6 mm
09:30 PM 51.0°F10.6°C 49.9°F9.9°C 96% 1.2 mph SSE1.9 kmh SSE 5.8 mph9.3 kmh 29.93 in1013.5 mb - 0.00 in0.0 mm 0.22 in5.6 mm
09:45 PM 50.5°F10.3°C 49.4°F9.7°C 96% 4.6 mph ESE7.4 kmh ESE 5.8 mph9.3 kmh 29.93 in1013.5 mb - 0.00 in0.0 mm 0.22 in5.6 mm
10:00 PM 50.1°F10.1°C 49.0°F9.4°C 96% Calm Calm -- 29.94 in1013.9 mb - 0.00 in0.0 mm 0.22 in5.6 mm
10:15 PM 49.3°F9.6°C 48.2°F9.0°C 96% Calm Calm -- 29.94 in1013.9 mb - 0.00 in0.0 mm 0.22 in5.6 mm
10:30 PM 48.7°F9.3°C 47.6°F8.7°C 96% Calm Calm -- 29.94 in1013.9 mb - 0.00 in0.0 mm 0.22 in5.6 mm
10:45 PM 48.6°F9.2°C 47.5°F8.6°C 96% 2.3 mph ESE3.7 kmh ESE 3.5 mph5.6 kmh 29.95 in1014.2 mb - 0.00 in0.0 mm 0.22 in5.6 mm
11:00 PM 47.7°F8.7°C 46.6°F8.1°C 96% Calm Calm -- 29.95 in1014.2 mb - 0.00 in0.0 mm 0.81 in20.6 mm
11:15 PM 49.1°F9.5°C 48.3°F9.1°C 97% 4.6 mph N7.4 kmh N 8.1 mph13.0 kmh 29.96 in1014.6 mb - 0.00 in0.0 mm 0.81 in20.6 mm
11:30 PM 49.6°F9.8°C 48.8°F9.3°C 97% 4.6 mph N7.4 kmh N 6.9 mph11.1 kmh 29.97 in1014.9 mb - 0.00 in0.0 mm 0.81 in20.6 mm
11:45 PM 49.3°F9.6°C 48.5°F9.2°C 97% 2.3 mph N3.7 kmh N 3.5 mph5.6 kmh 29.97 in1014.9 mb - 0.00 in0.0 mm 0.81 in20.6 mm